createdAt,value
2022-09-20T00:01:34.136Z,7.86
2022-09-20T00:04:05.517Z,7.84
2022-09-20T00:06:35.181Z,7.84
2022-09-20T00:09:04.983Z,7.83
2022-09-20T00:11:34.888Z,7.80
2022-09-20T00:14:06.158Z,7.79
2022-09-20T00:16:39.110Z,7.76
2022-09-20T00:19:08.919Z,7.77
2022-09-20T00:21:38.006Z,7.75
2022-09-20T00:24:06.798Z,7.73
2022-09-20T00:26:34.569Z,7.72
2022-09-20T00:29:02.597Z,7.70
2022-09-20T00:31:30.477Z,7.67
2022-09-20T00:34:17.756Z,7.64
2022-09-20T00:36:45.791Z,7.63
2022-09-20T00:39:15.301Z,7.65
2022-09-20T00:41:44.105Z,7.66
2022-09-20T00:44:51.801Z,7.65
2022-09-20T00:47:44.856Z,7.64
2022-09-20T00:50:30.676Z,7.60
2022-09-20T00:53:00.963Z,7.55
2022-09-20T00:55:29.507Z,7.52
2022-09-20T00:57:58.763Z,7.48
2022-09-20T01:00:27.970Z,7.44
2022-09-20T01:03:01.372Z,7.43
2022-09-20T01:05:29.734Z,7.42
2022-09-20T01:07:57.985Z,7.40
2022-09-20T01:10:25.839Z,7.38
2022-09-20T01:12:54.382Z,7.35
2022-09-20T01:15:27.950Z,7.35
2022-09-20T01:17:59.424Z,7.32
2022-09-20T01:20:40.784Z,7.31
2022-09-20T01:23:33.036Z,7.30
2022-09-20T01:26:09.939Z,7.29
2022-09-20T01:28:39.229Z,7.28
2022-09-20T01:31:15.167Z,7.27
2022-09-20T01:33:48.934Z,7.27
2022-09-20T01:36:25.041Z,7.28
2022-09-20T01:39:22.821Z,7.27
2022-09-20T01:41:57.593Z,7.30
2022-09-20T01:44:37.406Z,7.30
2022-09-20T01:47:43.292Z,7.31
2022-09-20T01:50:29.968Z,7.30
2022-09-20T01:53:19.189Z,7.30
2022-09-20T01:56:05.802Z,7.32
2022-09-20T01:58:39.648Z,7.31
2022-09-20T02:01:38.772Z,7.29
2022-09-20T02:04:44.522Z,7.28
2022-09-20T02:07:43.028Z,7.26
2022-09-20T02:10:58.777Z,7.25
2022-09-20T02:13:31.086Z,7.21
2022-09-20T02:16:34.938Z,7.20
2022-09-20T02:19:34.181Z,7.17
2022-09-20T02:22:47.147Z,7.15
2022-09-20T02:25:29.369Z,7.13
2022-09-20T02:28:23.454Z,7.12
2022-09-20T02:31:03.425Z,7.07
2022-09-20T02:34:02.502Z,7.07
2022-09-20T02:36:59.991Z,7.05
2022-09-20T02:39:44.713Z,7.03
2022-09-20T02:42:17.871Z,7.01
2022-09-20T02:44:46.084Z,6.99
2022-09-20T02:47:21.046Z,6.98
2022-09-20T02:50:07.657Z,6.98
2022-09-20T02:53:08.799Z,6.99
2022-09-20T02:55:48.005Z,7.00
2022-09-20T02:58:46.621Z,6.95
2022-09-20T03:01:51.808Z,6.97
2022-09-20T03:04:34.998Z,6.97
2022-09-20T03:07:30.853Z,6.94
2022-09-20T03:10:23.803Z,6.93
2022-09-20T03:13:07.815Z,6.91
2022-09-20T03:16:06.493Z,6.85
2022-09-20T03:18:49.190Z,6.86
2022-09-20T03:21:40.469Z,6.85
2022-09-20T03:24:20.494Z,6.85
2022-09-20T03:27:05.606Z,6.86
2022-09-20T03:29:36.347Z,6.85
2022-09-20T03:32:16.305Z,6.85
2022-09-20T03:34:56.208Z,6.82
2022-09-20T03:37:33.593Z,6.83
2022-09-20T03:40:23.580Z,6.81
2022-09-20T03:42:59.029Z,6.80
2022-09-20T03:45:48.753Z,6.79
2022-09-20T03:48:38.032Z,6.78
2022-09-20T03:51:24.344Z,6.75
2022-09-20T03:54:31.420Z,6.74
2022-09-20T03:57:11.474Z,6.77
2022-09-20T04:00:21.037Z,6.76
2022-09-20T04:03:14.170Z,6.74
2022-09-20T04:05:51.136Z,6.73
2022-09-20T04:08:55.987Z,6.69
2022-09-20T04:12:06.090Z,6.71
2022-09-20T04:15:08.233Z,6.69
2022-09-20T04:17:58.989Z,6.64
2022-09-20T04:21:00.790Z,6.63
2022-09-20T04:23:47.539Z,6.63
2022-09-20T04:26:26.463Z,6.63
2022-09-20T04:29:32.080Z,6.61
2022-09-20T04:32:14.009Z,6.61
2022-09-20T04:35:24.008Z,6.61
2022-09-20T04:37:53.632Z,6.65
2022-09-20T04:41:00.122Z,6.65
2022-09-20T04:43:53.820Z,6.67
2022-09-20T04:46:36.773Z,6.74
2022-09-20T04:49:25.888Z,6.74
2022-09-20T04:52:00.217Z,6.79
2022-09-20T04:54:41.565Z,6.84
2022-09-20T04:57:36.904Z,6.90
2022-09-20T05:00:12.956Z,6.98
2022-09-20T05:02:59.710Z,7.05
2022-09-20T05:05:41.228Z,7.12
2022-09-20T05:08:35.514Z,7.21
2022-09-20T05:11:09.846Z,7.29
2022-09-20T05:13:59.150Z,7.33
2022-09-20T05:16:46.784Z,7.37
2022-09-20T05:19:23.475Z,7.41
2022-09-20T05:22:02.482Z,7.44
2022-09-20T05:24:35.225Z,7.50
2022-09-20T05:27:19.697Z,7.52
2022-09-20T05:29:55.568Z,7.57
2022-09-20T05:32:33.761Z,7.63
2022-09-20T05:35:26.943Z,7.70
2022-09-20T05:38:13.660Z,7.81
2022-09-20T05:41:07.312Z,7.91
2022-09-20T05:44:20.190Z,8.04
2022-09-20T05:47:16.175Z,8.21
2022-09-20T05:50:12.583Z,8.31
2022-09-20T05:52:59.496Z,8.31
2022-09-20T05:56:01.620Z,8.38
2022-09-20T05:58:48.396Z,8.50
2022-09-20T06:01:20.070Z,8.51
2022-09-20T06:04:13.515Z,8.50
2022-09-20T06:07:10.521Z,8.48
2022-09-20T06:09:47.297Z,8.51
2022-09-20T06:12:37.313Z,8.50
2022-09-20T06:15:15.343Z,8.52
2022-09-20T06:18:20.797Z,8.49
2022-09-20T06:21:16.543Z,8.45
2022-09-20T06:23:44.953Z,8.44
2022-09-20T06:26:26.654Z,8.49
2022-09-20T06:29:00.671Z,8.51
2022-09-20T06:31:28.770Z,8.50
2022-09-20T06:34:02.346Z,8.53
2022-09-20T06:36:51.236Z,8.57
2022-09-20T06:40:07.278Z,8.67
2022-09-20T06:42:36.309Z,8.74
2022-09-20T06:45:05.009Z,8.84
2022-09-20T06:47:35.715Z,8.95
2022-09-20T06:50:07.441Z,9.03
2022-09-20T06:52:35.859Z,9.11
2022-09-20T06:55:07.511Z,9.20
2022-09-20T06:57:39.069Z,9.26
2022-09-20T07:00:10.525Z,9.31
2022-09-20T07:02:38.642Z,9.34
2022-09-20T07:05:07.676Z,9.28
2022-09-20T07:07:35.454Z,9.27
2022-09-20T07:10:03.401Z,9.27
2022-09-20T07:12:34.173Z,9.33
2022-09-20T07:15:02.186Z,9.34
2022-09-20T07:17:30.044Z,9.34
2022-09-20T07:19:57.843Z,9.37
2022-09-20T07:22:27.109Z,9.41
2022-09-20T07:24:55.460Z,9.39
2022-09-20T07:27:26.369Z,9.49
2022-09-20T07:29:56.893Z,9.61
2022-09-20T07:32:25.031Z,9.70
2022-09-20T07:34:52.879Z,9.89
2022-09-20T07:37:20.667Z,10.03
2022-09-20T07:39:48.473Z,10.12
2022-09-20T07:42:16.342Z,10.18
2022-09-20T07:44:44.118Z,10.24
2022-09-20T07:47:14.139Z,10.24
2022-09-20T07:49:42.039Z,10.24
2022-09-20T07:52:11.394Z,10.21
2022-09-20T07:54:40.080Z,10.17
2022-09-20T07:57:08.433Z,10.25
2022-09-20T07:59:36.241Z,10.24
2022-09-20T08:02:04.279Z,10.25
2022-09-20T08:04:32.368Z,10.32
2022-09-20T08:07:01.665Z,10.45
2022-09-20T08:09:29.676Z,10.58
2022-09-20T08:11:58.377Z,10.61
2022-09-20T08:14:26.322Z,10.74
2022-09-20T08:16:56.449Z,10.89
2022-09-20T08:19:24.388Z,10.91
2022-09-20T08:21:54.102Z,10.83
2022-09-20T08:24:22.148Z,10.85
2022-09-20T08:26:50.045Z,10.89
2022-09-20T08:29:18.252Z,10.97
2022-09-20T08:31:47.337Z,11.09
2022-09-20T08:34:17.848Z,11.17
2022-09-20T08:36:47.218Z,11.21
2022-09-20T08:42:28.002Z,11.46
2022-09-20T08:45:01.467Z,11.67
2022-09-20T08:47:33.303Z,11.73
2022-09-20T08:50:17.589Z,11.79
2022-09-20T08:52:49.412Z,11.80
2022-09-20T08:55:24.161Z,11.77
2022-09-20T08:57:55.345Z,11.87
2022-09-20T09:00:34.081Z,12.06
2022-09-20T09:03:07.019Z,12.21
2022-09-20T09:05:46.554Z,12.29
2022-09-20T09:08:18.406Z,12.40
2022-09-20T09:10:54.313Z,12.55
2022-09-20T09:13:25.533Z,12.57
2022-09-20T09:15:57.654Z,12.63
2022-09-20T09:18:32.278Z,12.70
2022-09-20T09:21:04.307Z,12.80
2022-09-20T09:23:42.581Z,12.83
2022-09-20T09:26:23.067Z,12.75
2022-09-20T09:29:32.934Z,12.81
2022-09-20T09:32:21.712Z,13.01
2022-09-20T09:34:50.249Z,13.10
2022-09-20T09:37:31.177Z,13.06
2022-09-20T09:40:12.616Z,12.95
2022-09-20T09:42:50.250Z,12.96
2022-09-20T09:45:38.843Z,12.91
2022-09-20T09:48:25.134Z,12.95
2022-09-20T09:51:12.760Z,13.18
2022-09-20T09:53:41.747Z,13.49
2022-09-20T09:56:18.211Z,13.59
2022-09-20T09:59:10.746Z,13.59
2022-09-20T10:01:55.896Z,13.55
2022-09-20T10:04:48.231Z,13.51
2022-09-20T10:07:54.460Z,13.41
2022-09-20T10:10:43.598Z,13.37
2022-09-20T10:13:50.997Z,13.71
2022-09-20T10:16:47.970Z,14.19
2022-09-20T10:19:47.030Z,14.44
2022-09-20T10:22:24.532Z,14.69
2022-09-20T10:24:59.660Z,14.79
2022-09-20T10:27:33.178Z,14.67
2022-09-20T10:30:12.441Z,14.67
2022-09-20T10:32:40.308Z,14.76
2022-09-20T10:35:29.963Z,14.87
2022-09-20T10:38:22.390Z,14.90
2022-09-20T10:41:30.580Z,14.88
2022-09-20T10:44:07.609Z,14.88
2022-09-20T10:46:51.736Z,14.76
2022-09-20T10:49:34.909Z,14.69
2022-09-20T10:52:22.933Z,14.70
2022-09-20T10:55:21.482Z,14.71
2022-09-20T10:58:01.581Z,14.70
2022-09-20T11:00:32.534Z,14.68
2022-09-20T11:03:38.116Z,14.67
2022-09-20T11:06:38.636Z,14.79
2022-09-20T11:09:13.992Z,14.87
2022-09-20T11:11:48.016Z,14.95
2022-09-20T11:14:23.387Z,15.07
2022-09-20T11:16:57.234Z,15.12
2022-09-20T11:19:50.747Z,15.16
2022-09-20T11:22:21.746Z,15.25
2022-09-20T11:25:29.267Z,15.37
2022-09-20T11:28:05.574Z,15.66
2022-09-20T11:30:36.593Z,15.82
2022-09-20T11:33:29.753Z,15.96
2022-09-20T11:36:04.300Z,16.14
2022-09-20T11:38:57.622Z,16.43
2022-09-20T11:41:32.563Z,16.61
2022-09-20T11:44:11.972Z,16.62
2022-09-20T11:46:49.280Z,16.33
2022-09-20T11:49:23.918Z,15.93
2022-09-20T11:52:17.578Z,15.61
2022-09-20T11:55:03.549Z,15.27
2022-09-20T11:57:32.191Z,15.11
2022-09-20T12:00:04.305Z,14.97
2022-09-20T12:02:53.177Z,14.90
2022-09-20T12:05:32.325Z,14.97
2022-09-20T12:08:18.555Z,15.11
2022-09-20T12:10:57.961Z,15.19
2022-09-20T12:13:28.126Z,15.30
2022-09-20T12:16:06.445Z,15.51
2022-09-20T12:18:34.248Z,15.69
2022-09-20T12:21:09.103Z,15.82
2022-09-20T12:23:39.733Z,16.01
2022-09-20T12:26:22.926Z,16.27
2022-09-20T12:28:56.982Z,16.56
2022-09-20T12:31:34.329Z,16.74
2022-09-20T12:34:11.898Z,16.82
2022-09-20T12:36:44.282Z,16.85
2022-09-20T12:39:12.662Z,16.88
2022-09-20T12:41:57.744Z,17.00
2022-09-20T12:44:31.262Z,17.19
2022-09-20T12:47:10.993Z,17.28
2022-09-20T12:50:06.991Z,17.09
2022-09-20T12:52:53.576Z,16.78
2022-09-20T12:55:27.709Z,16.63
2022-09-20T12:58:20.101Z,16.45
2022-09-20T13:01:14.404Z,16.12
2022-09-20T13:03:48.522Z,15.84
2022-09-20T13:06:17.908Z,15.72
2022-09-20T13:09:07.496Z,15.61
2022-09-20T13:12:01.360Z,15.43
2022-09-20T13:14:31.761Z,15.32
2022-09-20T13:17:07.296Z,15.34
2022-09-20T13:19:54.922Z,15.41
2022-09-20T13:22:30.420Z,15.53
2022-09-20T13:25:02.998Z,15.67
2022-09-20T13:27:36.495Z,15.69
2022-09-20T13:30:24.522Z,15.49
2022-09-20T13:32:53.420Z,15.15
2022-09-20T13:35:29.581Z,14.82
2022-09-20T13:38:05.137Z,14.57
2022-09-20T13:40:36.047Z,14.28
2022-09-20T13:43:23.077Z,14.16
2022-09-20T13:45:57.978Z,14.09
2022-09-20T13:48:30.424Z,14.00
2022-09-20T13:50:58.884Z,13.93
2022-09-20T13:53:41.447Z,13.76
2022-09-20T13:56:30.114Z,13.66
2022-09-20T13:59:05.281Z,13.57
2022-09-20T14:01:35.736Z,13.53
2022-09-20T14:04:08.269Z,13.49
2022-09-20T14:06:36.578Z,13.42
2022-09-20T14:09:11.002Z,13.34
2022-09-20T14:11:40.262Z,13.32
2022-09-20T14:14:12.484Z,13.32
2022-09-20T14:16:49.133Z,13.28
2022-09-20T14:19:20.505Z,13.25
2022-09-20T14:21:50.180Z,13.27
2022-09-20T14:24:17.876Z,13.26
2022-09-20T14:27:22.698Z,13.26
2022-09-20T14:29:52.649Z,13.27
2022-09-20T14:32:28.849Z,13.27
2022-09-20T14:35:19.183Z,13.27
2022-09-20T14:37:51.121Z,13.24
2022-09-20T14:40:33.405Z,13.24
2022-09-20T14:43:03.769Z,13.26
2022-09-20T14:45:34.666Z,13.33
2022-09-20T14:48:11.647Z,13.41
2022-09-20T14:51:06.654Z,13.48
2022-09-20T14:53:37.318Z,13.57
2022-09-20T14:56:05.403Z,13.66
2022-09-20T14:58:55.167Z,13.73
2022-09-20T15:01:24.999Z,13.89
2022-09-20T15:03:53.774Z,14.03
2022-09-20T15:06:21.624Z,14.20
2022-09-20T15:08:49.659Z,14.32
2022-09-20T15:11:19.086Z,14.40
2022-09-20T15:13:46.993Z,14.47
2022-09-20T15:16:18.800Z,14.68
2022-09-20T15:18:47.061Z,14.81
2022-09-20T15:21:15.277Z,14.72
2022-09-20T15:23:43.963Z,14.58
2022-09-20T15:26:13.784Z,14.44
2022-09-20T15:28:41.567Z,14.36
2022-09-20T15:31:10.489Z,14.32
2022-09-20T15:33:38.360Z,14.27
2022-09-20T15:36:06.846Z,14.27
2022-09-20T15:38:34.854Z,14.25
2022-09-20T15:41:06.418Z,14.24
2022-09-20T15:43:34.438Z,14.20
2022-09-20T15:46:29.235Z,14.11
2022-09-20T15:49:00.461Z,13.99
2022-09-20T15:51:30.557Z,13.88
2022-09-20T15:54:00.702Z,13.79
2022-09-20T15:56:37.220Z,13.74
2022-09-20T15:59:10.455Z,13.69
2022-09-20T16:01:43.452Z,13.66
2022-09-20T16:04:17.520Z,13.59
2022-09-20T16:06:48.232Z,13.55
2022-09-20T16:09:18.341Z,13.52
2022-09-20T16:11:48.291Z,13.48
2022-09-20T16:14:16.430Z,13.44
2022-09-20T16:16:44.364Z,13.38
2022-09-20T16:19:20.198Z,13.29
2022-09-20T16:21:56.584Z,13.19
2022-09-20T16:24:30.834Z,13.10
2022-09-20T16:27:01.345Z,13.02
2022-09-20T16:29:31.186Z,12.91
2022-09-20T16:32:00.986Z,12.79
2022-09-20T16:34:36.598Z,12.68
2022-09-20T16:37:12.007Z,12.58
2022-09-20T16:39:41.038Z,12.48
2022-09-20T16:42:12.956Z,12.35
2022-09-20T16:44:43.108Z,12.20
2022-09-20T16:47:22.308Z,12.08
2022-09-20T16:49:50.760Z,11.94
2022-09-20T16:52:18.883Z,11.79
2022-09-20T16:54:46.742Z,11.66
2022-09-20T16:57:15.662Z,11.54
2022-09-20T16:59:43.530Z,11.41
2022-09-20T17:02:12.719Z,11.28
2022-09-20T17:04:42.135Z,11.17
2022-09-20T17:07:10.013Z,11.05
2022-09-20T17:09:37.840Z,10.97
2022-09-20T17:12:09.309Z,10.84
2022-09-20T17:14:37.379Z,10.74
2022-09-20T17:17:05.208Z,10.61
2022-09-20T17:19:33.938Z,10.47
2022-09-20T17:22:01.749Z,10.38
2022-09-20T17:24:30.296Z,10.27
2022-09-20T17:26:58.666Z,10.16
2022-09-20T17:29:27.750Z,10.08
2022-09-20T17:31:59.896Z,9.99
2022-09-20T17:34:29.633Z,9.90
2022-09-20T17:36:57.690Z,9.85
2022-09-20T17:39:25.693Z,9.82
2022-09-20T17:41:53.560Z,9.81
2022-09-20T17:44:21.493Z,9.79
2022-09-20T17:46:50.699Z,9.82
2022-09-20T17:49:21.411Z,9.87
2022-09-20T17:51:51.933Z,9.96
2022-09-20T17:54:20.670Z,10.04
2022-09-20T17:56:51.726Z,10.11
2022-09-20T17:59:20.856Z,10.19
2022-09-20T18:01:51.130Z,10.29
2022-09-20T18:04:21.390Z,10.36
2022-09-20T18:06:51.216Z,10.45
2022-09-20T18:09:25.407Z,10.52
2022-09-20T18:11:55.431Z,10.57
2022-09-20T18:14:27.549Z,10.58
2022-09-20T18:17:00.026Z,10.57
2022-09-20T18:19:33.128Z,10.57
2022-09-20T18:22:03.076Z,10.57
2022-09-20T18:24:31.701Z,10.54
2022-09-20T18:27:01.097Z,10.49
2022-09-20T18:29:31.767Z,10.46
2022-09-20T18:32:00.975Z,10.38
2022-09-20T18:34:33.608Z,10.38
2022-09-20T18:37:03.865Z,10.32
2022-09-20T18:39:34.931Z,10.28
2022-09-20T18:42:04.364Z,10.23
2022-09-20T18:44:34.587Z,10.16
2022-09-20T18:47:04.206Z,10.10
2022-09-20T18:49:32.366Z,10.01
2022-09-20T18:52:00.591Z,9.95
2022-09-20T18:54:33.546Z,9.87
2022-09-20T18:57:02.362Z,9.79
2022-09-20T18:59:30.935Z,9.73
2022-09-20T19:02:40.110Z,9.65
2022-09-20T19:05:34.277Z,9.58
2022-09-20T19:08:23.214Z,9.49
2022-09-20T19:10:59.202Z,9.43
2022-09-20T19:13:45.082Z,9.35
2022-09-20T19:16:18.620Z,9.32
2022-09-20T19:19:17.996Z,9.29
2022-09-20T19:22:08.672Z,9.28
2022-09-20T19:24:39.352Z,9.26
2022-09-20T19:27:12.249Z,9.26
2022-09-20T19:29:40.787Z,9.23
2022-09-20T19:32:18.926Z,9.21
2022-09-20T19:34:53.038Z,9.19
2022-09-20T19:37:35.332Z,9.18
2022-09-20T19:40:26.043Z,9.16
2022-09-20T19:43:03.742Z,9.12
2022-09-20T19:45:55.833Z,9.04
2022-09-20T19:48:39.719Z,8.98
2022-09-20T19:51:12.773Z,8.94
2022-09-20T19:53:41.237Z,8.93
2022-09-20T19:56:29.709Z,8.92
2022-09-20T19:58:57.949Z,8.94
2022-09-20T20:01:26.515Z,8.92
2022-09-20T20:03:55.289Z,8.89
2022-09-20T20:06:33.174Z,8.85
2022-09-20T20:09:20.383Z,8.85
2022-09-20T20:12:00.513Z,8.81
2022-09-20T20:14:55.985Z,8.76
2022-09-20T20:17:37.541Z,8.71
2022-09-20T20:20:33.912Z,8.66
2022-09-20T20:23:39.740Z,8.60
2022-09-20T20:26:19.904Z,8.54
2022-09-20T20:28:48.494Z,8.48
2022-09-20T20:31:16.825Z,8.42
2022-09-20T20:33:44.749Z,8.38
2022-09-20T20:36:12.598Z,8.32
2022-09-20T20:38:43.627Z,8.27
2022-09-20T20:41:13.946Z,8.22
2022-09-20T20:43:43.619Z,8.16
2022-09-20T20:46:14.412Z,8.12
2022-09-20T20:48:42.629Z,8.08
2022-09-20T20:51:12.712Z,8.03
2022-09-20T20:53:46.705Z,8.05
2022-09-20T20:56:17.473Z,8.07
2022-09-20T20:58:46.986Z,8.05
2022-09-20T21:01:30.791Z,8.07
2022-09-20T21:03:59.592Z,8.05
2022-09-20T21:06:30.265Z,8.06
2022-09-20T21:08:58.623Z,8.04
2022-09-20T21:11:28.433Z,8.02
2022-09-20T21:13:58.144Z,8.03
2022-09-20T21:16:31.370Z,8.03
2022-09-20T21:18:59.221Z,8.02
2022-09-20T21:21:36.063Z,8.01
2022-09-20T21:24:06.356Z,8.01
2022-09-20T21:26:37.137Z,7.98
2022-09-20T21:29:11.030Z,7.99
2022-09-20T21:31:41.665Z,8.00
2022-09-20T21:34:11.878Z,8.01
2022-09-20T21:36:44.753Z,8.00
2022-09-20T21:39:13.174Z,7.99
2022-09-20T21:41:41.598Z,7.95
2022-09-20T21:44:12.542Z,7.92
2022-09-20T21:46:42.121Z,7.90
2022-09-20T21:49:12.265Z,7.86
2022-09-20T21:51:42.748Z,7.84
2022-09-20T21:54:11.599Z,7.80
2022-09-20T21:56:41.524Z,7.79
2022-09-20T21:59:10.121Z,7.75
2022-09-20T22:01:41.325Z,7.73
2022-09-20T22:04:11.801Z,7.70
2022-09-20T22:06:42.159Z,7.63
2022-09-20T22:09:15.305Z,7.61
2022-09-20T22:11:48.499Z,7.58
2022-09-20T22:14:19.824Z,7.54
2022-09-20T22:16:49.294Z,7.51
2022-09-20T22:19:18.325Z,7.47
2022-09-20T22:21:48.645Z,7.44
2022-09-20T22:24:18.240Z,7.41
2022-09-20T22:26:51.220Z,7.38
2022-09-20T22:29:19.630Z,7.34
2022-09-20T22:31:50.371Z,7.34
2022-09-20T22:34:24.402Z,7.35
2022-09-20T22:36:52.540Z,7.33
2022-09-20T22:39:20.414Z,7.29
2022-09-20T22:41:50.870Z,7.24
2022-09-20T22:44:18.627Z,7.19
2022-09-20T22:46:46.532Z,7.17
2022-09-20T22:49:14.400Z,7.15
2022-09-20T22:51:42.988Z,7.14
2022-09-20T22:54:13.421Z,7.19
2022-09-20T22:56:42.608Z,7.20
2022-09-20T22:59:12.940Z,7.20
2022-09-20T23:01:45.787Z,7.24
2022-09-20T23:04:16.867Z,7.22
2022-09-20T23:06:47.957Z,7.23
2022-09-20T23:09:18.007Z,7.20
2022-09-20T23:11:46.887Z,7.20
2022-09-20T23:14:20.992Z,7.20
2022-09-20T23:16:49.374Z,7.21
2022-09-20T23:19:17.680Z,7.22
2022-09-20T23:21:45.720Z,7.24
2022-09-20T23:24:16.133Z,7.27
2022-09-20T23:26:44.715Z,7.25
2022-09-20T23:29:15.305Z,7.23
2022-09-20T23:31:46.463Z,7.22
2022-09-20T23:34:17.472Z,7.20
2022-09-20T23:36:46.725Z,7.20
2022-09-20T23:39:15.565Z,7.18
2022-09-20T23:41:48.337Z,7.17
2022-09-20T23:44:19.862Z,7.20
2022-09-20T23:46:47.972Z,7.18
2022-09-20T23:49:15.950Z,7.19
2022-09-20T23:51:43.766Z,7.23
2022-09-20T23:54:11.789Z,7.29
2022-09-20T23:56:40.949Z,7.35
2022-09-20T23:59:08.786Z,7.41
